AIC885 VIDP-VAHS
Flight info
| Callsign | AIC885 |
|---|---|
| Flight time | 1h 17m |
| Altitude | 38000 |
| Route | DUDUM7C DUDUM A474 NIKOT Q5 UUD W58 AAE W62 HSR |
| Aircraft | A321/M-SDE3FGHIRWY/LB1 |
Departure
| Time | 2026-04-27 05:39 |
|---|---|
| Airport | Indira Gandhi International Airport (VIDP) |
Arrival
| Time | 2026-04-27 06:56 |
|---|---|
| Airport | Rajkot International Airport (VAHS) |
| Time | Latitude | Longitude | Altitude | Speed | Heading |
|---|---|---|---|---|---|
| 2026-04-27 05:18 | 28.55171 | 77.08073 | 779 ft | 0 kts | 149° |
| 2026-04-27 05:26 | 28.55177 | 77.08070 | 779 ft | 2 kts | 149° |
| 2026-04-27 05:27 | 28.55189 | 77.08061 | 779 ft | 2 kts | 149° |
| 2026-04-27 05:27 | 28.55202 | 77.08052 | 779 ft | 2 kts | 149° |
| 2026-04-27 05:27 | 28.55215 | 77.08044 | 779 ft | 2 kts | 149° |
| 2026-04-27 05:27 | 28.55228 | 77.08035 | 779 ft | 1 kts | 149° |
| 2026-04-27 05:28 | 28.55240 | 77.08031 | 779 ft | 1 kts | 202° |
| 2026-04-27 05:28 | 28.55247 | 77.08038 | 779 ft | 0 kts | 243° |
| 2026-04-27 05:28 | 28.55250 | 77.08044 | 779 ft | 0 kts | 239° |
| 2026-04-27 05:30 | 28.55247 | 77.08038 | 779 ft | 1 kts | 239° |
| 2026-04-27 05:31 | 28.55233 | 77.08014 | 779 ft | 5 kts | 237° |
| 2026-04-27 05:31 | 28.55209 | 77.07969 | 779 ft | 8 kts | 239° |
| 2026-04-27 05:31 | 28.55165 | 77.07913 | 779 ft | 10 kts | 202° |
| 2026-04-27 05:31 | 28.55094 | 77.07932 | 779 ft | 12 kts | 117° |
| 2026-04-27 05:32 | 28.55067 | 77.08035 | 779 ft | 14 kts | 104° |
| 2026-04-27 05:32 | 28.55041 | 77.08147 | 779 ft | 14 kts | 105° |
| 2026-04-27 05:32 | 28.55014 | 77.08261 | 779 ft | 16 kts | 105° |
| 2026-04-27 05:32 | 28.54985 | 77.08389 | 779 ft | 16 kts | 104° |
| 2026-04-27 05:33 | 28.54956 | 77.08517 | 779 ft | 16 kts | 104° |
| 2026-04-27 05:33 | 28.54925 | 77.08646 | 779 ft | 16 kts | 104° |
| 2026-04-27 05:33 | 28.54894 | 77.08784 | 779 ft | 18 kts | 104° |
| 2026-04-27 05:33 | 28.54860 | 77.08928 | 779 ft | 18 kts | 104° |
| 2026-04-27 05:34 | 28.54828 | 77.09070 | 779 ft | 18 kts | 105° |
| 2026-04-27 05:34 | 28.54795 | 77.09210 | 779 ft | 18 kts | 104° |
| 2026-04-27 05:34 | 28.54763 | 77.09350 | 779 ft | 18 kts | 104° |
| 2026-04-27 05:34 | 28.54732 | 77.09488 | 779 ft | 18 kts | 105° |
| 2026-04-27 05:35 | 28.54700 | 77.09624 | 779 ft | 17 kts | 104° |
| 2026-04-27 05:35 | 28.54668 | 77.09760 | 779 ft | 17 kts | 104° |
| 2026-04-27 05:35 | 28.54638 | 77.09895 | 779 ft | 17 kts | 105° |
| 2026-04-27 05:35 | 28.54606 | 77.10031 | 779 ft | 17 kts | 105° |
| 2026-04-27 05:36 | 28.54575 | 77.10168 | 779 ft | 17 kts | 104° |
| 2026-04-27 05:36 | 28.54543 | 77.10305 | 779 ft | 17 kts | 105° |
| 2026-04-27 05:36 | 28.54511 | 77.10440 | 779 ft | 17 kts | 104° |
| 2026-04-27 05:36 | 28.54476 | 77.10571 | 779 ft | 15 kts | 122° |
| 2026-04-27 05:37 | 28.54387 | 77.10587 | 779 ft | 14 kts | 200° |
| 2026-04-27 05:37 | 28.54293 | 77.10554 | 779 ft | 13 kts | 195° |
| 2026-04-27 05:37 | 28.54221 | 77.10503 | 779 ft | 12 kts | 267° |
| 2026-04-27 05:37 | 28.54240 | 77.10417 | 779 ft | 9 kts | 286° |
| 2026-04-27 05:38 | 28.54299 | 77.10152 | 779 ft | 68 kts | 284° |
| 2026-04-27 05:38 | 28.54462 | 77.09390 | 779 ft | 129 kts | 284° |
| 2026-04-27 05:38 | 28.54719 | 77.08206 | 898 ft | 167 kts | 284° |
| 2026-04-27 05:38 | 28.55016 | 77.06863 | 1187 ft | 187 kts | 285° |
| 2026-04-27 05:39 | 28.55368 | 77.05343 | 1642 ft | 206 kts | 284° |
| 2026-04-27 05:39 | 28.55535 | 77.03692 | 2153 ft | 224 kts | 261° |
| 2026-04-27 05:39 | 28.54774 | 77.02067 | 2631 ft | 247 kts | 225° |
| 2026-04-27 05:39 | 28.53212 | 77.01120 | 3116 ft | 265 kts | 197° |
| 2026-04-27 05:40 | 28.51415 | 77.00606 | 3500 ft | 272 kts | 197° |
| 2026-04-27 05:40 | 28.49551 | 77.00017 | 3900 ft | 280 kts | 198° |
| 2026-04-27 05:40 | 28.47690 | 76.99402 | 4425 ft | 282 kts | 199° |
| 2026-04-27 05:40 | 28.45819 | 76.98775 | 4941 ft | 284 kts | 199° |
| 2026-04-27 05:41 | 28.43901 | 76.98128 | 5487 ft | 286 kts | 199° |
| 2026-04-27 05:41 | 28.41989 | 76.97483 | 6055 ft | 288 kts | 200° |
| 2026-04-27 05:41 | 28.40079 | 76.96838 | 6630 ft | 291 kts | 200° |
| 2026-04-27 05:41 | 28.38117 | 76.96174 | 7230 ft | 293 kts | 200° |
| 2026-04-27 05:42 | 28.36159 | 76.95513 | 7846 ft | 296 kts | 200° |
| 2026-04-27 05:42 | 28.34175 | 76.94843 | 8487 ft | 299 kts | 201° |
| 2026-04-27 05:42 | 28.32194 | 76.94173 | 9130 ft | 302 kts | 201° |
| 2026-04-27 05:42 | 28.30158 | 76.93484 | 9815 ft | 305 kts | 201° |
| 2026-04-27 05:43 | 28.28112 | 76.92792 | 10496 ft | 309 kts | 201° |
| 2026-04-27 05:43 | 28.26076 | 76.92069 | 11178 ft | 310 kts | 205° |
| 2026-04-27 05:43 | 28.24141 | 76.91021 | 11857 ft | 308 kts | 216° |
| 2026-04-27 05:43 | 28.22363 | 76.89616 | 12278 ft | 319 kts | 222° |
| 2026-04-27 05:44 | 28.20573 | 76.88026 | 12621 ft | 333 kts | 223° |
| 2026-04-27 05:44 | 28.18763 | 76.86398 | 13197 ft | 339 kts | 223° |
| 2026-04-27 05:44 | 28.16906 | 76.84733 | 13894 ft | 341 kts | 222° |
| 2026-04-27 05:44 | 28.15039 | 76.83073 | 14603 ft | 342 kts | 222° |
| 2026-04-27 05:45 | 28.13175 | 76.81422 | 15282 ft | 343 kts | 222° |
| 2026-04-27 05:45 | 28.11286 | 76.79751 | 15936 ft | 346 kts | 222° |
| 2026-04-27 05:45 | 28.09369 | 76.78057 | 16587 ft | 348 kts | 221° |
| 2026-04-27 05:45 | 28.07470 | 76.76381 | 17219 ft | 350 kts | 221° |
| 2026-04-27 05:46 | 28.05542 | 76.74681 | 17850 ft | 352 kts | 221° |
| 2026-04-27 05:46 | 28.03607 | 76.72976 | 18447 ft | 355 kts | 221° |
| 2026-04-27 05:46 | 28.01657 | 76.71259 | 19029 ft | 358 kts | 221° |
| 2026-04-27 05:46 | 27.99689 | 76.69525 | 19599 ft | 361 kts | 221° |
| 2026-04-27 05:47 | 27.97696 | 76.67773 | 20167 ft | 364 kts | 221° |
| 2026-04-27 05:47 | 27.95700 | 76.66019 | 20739 ft | 367 kts | 221° |
| 2026-04-27 05:47 | 27.93677 | 76.64242 | 21301 ft | 370 kts | 221° |
| 2026-04-27 05:47 | 27.91632 | 76.62444 | 21857 ft | 373 kts | 221° |
| 2026-04-27 05:48 | 27.89561 | 76.60628 | 22400 ft | 377 kts | 221° |
| 2026-04-27 05:48 | 27.87504 | 76.58823 | 22930 ft | 380 kts | 221° |
| 2026-04-27 05:48 | 27.85391 | 76.56969 | 23457 ft | 383 kts | 221° |
| 2026-04-27 05:48 | 27.83291 | 76.55127 | 23958 ft | 387 kts | 221° |
| 2026-04-27 05:49 | 27.81137 | 76.53241 | 24456 ft | 390 kts | 221° |
| 2026-04-27 05:49 | 27.78930 | 76.51443 | 24940 ft | 395 kts | 218° |
| 2026-04-27 05:49 | 27.76655 | 76.49720 | 25429 ft | 398 kts | 217° |
| 2026-04-27 05:49 | 27.74356 | 76.47990 | 25918 ft | 400 kts | 217° |
| 2026-04-27 05:50 | 27.72006 | 76.46220 | 26390 ft | 403 kts | 217° |
| 2026-04-27 05:50 | 27.69679 | 76.44468 | 26842 ft | 406 kts | 217° |
| 2026-04-27 05:50 | 27.67335 | 76.42704 | 27266 ft | 409 kts | 217° |
| 2026-04-27 05:50 | 27.64972 | 76.40926 | 27684 ft | 412 kts | 217° |
| 2026-04-27 05:51 | 27.62557 | 76.39108 | 28108 ft | 415 kts | 217° |
| 2026-04-27 05:51 | 27.60177 | 76.37319 | 28506 ft | 417 kts | 217° |
| 2026-04-27 05:51 | 27.57747 | 76.35491 | 28901 ft | 420 kts | 217° |
| 2026-04-27 05:51 | 27.55308 | 76.33659 | 29282 ft | 423 kts | 217° |
| 2026-04-27 05:52 | 27.52832 | 76.31805 | 29671 ft | 426 kts | 216° |
| 2026-04-27 05:52 | 27.50299 | 76.30026 | 30053 ft | 430 kts | 214° |
| 2026-04-27 05:52 | 27.47760 | 76.28281 | 30429 ft | 432 kts | 214° |
| 2026-04-27 05:52 | 27.45192 | 76.26521 | 30805 ft | 434 kts | 214° |
| 2026-04-27 05:53 | 27.42577 | 76.24728 | 31165 ft | 437 kts | 214° |
| 2026-04-27 05:53 | 27.39999 | 76.22961 | 31477 ft | 440 kts | 214° |
| 2026-04-27 05:53 | 27.37349 | 76.21146 | 31802 ft | 443 kts | 214° |
| 2026-04-27 05:53 | 27.34738 | 76.19358 | 32220 ft | 443 kts | 214° |
| 2026-04-27 05:54 | 27.32129 | 76.17574 | 32736 ft | 440 kts | 214° |
| 2026-04-27 05:54 | 27.29520 | 76.15788 | 33232 ft | 438 kts | 214° |
| 2026-04-27 05:54 | 27.26894 | 76.13993 | 33675 ft | 437 kts | 214° |
| 2026-04-27 05:54 | 27.24320 | 76.12234 | 34110 ft | 435 kts | 214° |
| 2026-04-27 05:55 | 27.21760 | 76.10486 | 34571 ft | 433 kts | 214° |
| 2026-04-27 05:55 | 27.19175 | 76.08723 | 35031 ft | 430 kts | 214° |
| 2026-04-27 05:55 | 27.16617 | 76.06976 | 35475 ft | 428 kts | 214° |
| 2026-04-27 05:55 | 27.14109 | 76.05266 | 35767 ft | 426 kts | 214° |
| 2026-04-27 05:56 | 27.11583 | 76.03542 | 35779 ft | 426 kts | 214° |
| 2026-04-27 05:56 | 27.06507 | 76.00082 | 35783 ft | 425 kts | 214° |
| 2026-04-27 05:57 | 27.01446 | 75.96636 | 35784 ft | 424 kts | 214° |
| 2026-04-27 05:57 | 26.96421 | 75.93218 | 35784 ft | 424 kts | 214° |
| 2026-04-27 05:58 | 26.91354 | 75.89776 | 35781 ft | 425 kts | 214° |
| 2026-04-27 05:58 | 26.86298 | 75.86348 | 35776 ft | 425 kts | 213° |
| 2026-04-27 05:59 | 26.81044 | 75.83283 | 35772 ft | 428 kts | 207° |
| 2026-04-27 05:59 | 26.75504 | 75.80813 | 35768 ft | 429 kts | 204° |
| 2026-04-27 06:00 | 26.67122 | 75.77265 | 35766 ft | 428 kts | 203° |
| 2026-04-27 06:00 | 26.61555 | 75.74909 | 35760 ft | 429 kts | 204° |
| 2026-04-27 06:01 | 26.55961 | 75.72541 | 35757 ft | 430 kts | 203° |
| 2026-04-27 06:01 | 26.50361 | 75.70174 | 35765 ft | 430 kts | 203° |
| 2026-04-27 06:02 | 26.44768 | 75.67812 | 35768 ft | 430 kts | 203° |
| 2026-04-27 06:02 | 26.39189 | 75.65459 | 35765 ft | 428 kts | 203° |
| 2026-04-27 06:03 | 26.33603 | 75.63103 | 35760 ft | 428 kts | 203° |
| 2026-04-27 06:03 | 26.28037 | 75.60759 | 35767 ft | 428 kts | 203° |
| 2026-04-27 06:04 | 26.22479 | 75.58421 | 35771 ft | 428 kts | 203° |
| 2026-04-27 06:04 | 26.16890 | 75.56070 | 35779 ft | 428 kts | 203° |
| 2026-04-27 06:05 | 26.11308 | 75.53727 | 35783 ft | 428 kts | 203° |
| 2026-04-27 06:05 | 26.05733 | 75.51387 | 35786 ft | 428 kts | 203° |
| 2026-04-27 06:06 | 26.00157 | 75.49051 | 35787 ft | 428 kts | 203° |
| 2026-04-27 06:06 | 25.94611 | 75.46656 | 35784 ft | 427 kts | 206° |
| 2026-04-27 06:07 | 25.89386 | 75.43515 | 35789 ft | 425 kts | 215° |
| 2026-04-27 06:07 | 25.84708 | 75.39515 | 35784 ft | 424 kts | 224° |
| 2026-04-27 06:08 | 25.80633 | 75.34817 | 35778 ft | 423 kts | 229° |
| 2026-04-27 06:08 | 25.76716 | 75.29955 | 35778 ft | 423 kts | 230° |
| 2026-04-27 06:09 | 25.72807 | 75.25110 | 35779 ft | 422 kts | 230° |
| 2026-04-27 06:09 | 25.68905 | 75.20288 | 35769 ft | 422 kts | 230° |
| 2026-04-27 06:10 | 25.64960 | 75.15419 | 35776 ft | 423 kts | 230° |
| 2026-04-27 06:10 | 25.61035 | 75.10580 | 35780 ft | 422 kts | 230° |
| 2026-04-27 06:11 | 25.57129 | 75.05772 | 35783 ft | 422 kts | 230° |
| 2026-04-27 06:11 | 25.53200 | 75.00941 | 35788 ft | 421 kts | 230° |
| 2026-04-27 06:12 | 25.49282 | 74.96127 | 35793 ft | 421 kts | 229° |
| 2026-04-27 06:12 | 25.45364 | 74.91322 | 35798 ft | 421 kts | 230° |
| 2026-04-27 06:13 | 25.41444 | 74.86516 | 35805 ft | 422 kts | 230° |
| 2026-04-27 06:13 | 25.37495 | 74.81680 | 35807 ft | 422 kts | 230° |
| 2026-04-27 06:14 | 25.33582 | 74.76895 | 35814 ft | 421 kts | 230° |
| 2026-04-27 06:14 | 25.29648 | 74.72086 | 35817 ft | 421 kts | 230° |
| 2026-04-27 06:15 | 25.25739 | 74.67313 | 35819 ft | 421 kts | 230° |
| 2026-04-27 06:15 | 25.21814 | 74.62525 | 35822 ft | 420 kts | 230° |
| 2026-04-27 06:16 | 25.17891 | 74.57743 | 35832 ft | 420 kts | 230° |
| 2026-04-27 06:16 | 25.13974 | 74.52976 | 35839 ft | 420 kts | 230° |
| 2026-04-27 06:17 | 25.10054 | 74.48209 | 35843 ft | 420 kts | 230° |
| 2026-04-27 06:17 | 25.06108 | 74.43407 | 35843 ft | 420 kts | 230° |
| 2026-04-27 06:18 | 25.02188 | 74.38641 | 35843 ft | 421 kts | 230° |
| 2026-04-27 06:18 | 24.98257 | 74.33865 | 35846 ft | 421 kts | 229° |
| 2026-04-27 06:19 | 24.94389 | 74.29172 | 35847 ft | 421 kts | 229° |
| 2026-04-27 06:19 | 24.90479 | 74.24429 | 35843 ft | 421 kts | 229° |
| 2026-04-27 06:20 | 24.86607 | 74.19740 | 35836 ft | 421 kts | 229° |
| 2026-04-27 06:20 | 24.82658 | 74.14962 | 35837 ft | 420 kts | 229° |
| 2026-04-27 06:21 | 24.78703 | 74.10181 | 35839 ft | 420 kts | 229° |
| 2026-04-27 06:21 | 24.74778 | 74.05439 | 35842 ft | 419 kts | 229° |
| 2026-04-27 06:22 | 24.70867 | 74.00716 | 35840 ft | 420 kts | 229° |
| 2026-04-27 06:22 | 24.66925 | 73.95965 | 35844 ft | 420 kts | 229° |
| 2026-04-27 06:23 | 24.62935 | 73.91295 | 35851 ft | 421 kts | 226° |
| 2026-04-27 06:23 | 24.58520 | 73.87038 | 35851 ft | 422 kts | 220° |
| 2026-04-27 06:24 | 24.53822 | 73.83189 | 35857 ft | 422 kts | 218° |
| 2026-04-27 06:24 | 24.49102 | 73.79358 | 35858 ft | 422 kts | 218° |
| 2026-04-27 06:25 | 24.44381 | 73.75527 | 35861 ft | 423 kts | 218° |
| 2026-04-27 06:25 | 24.39623 | 73.71671 | 35864 ft | 423 kts | 218° |
| 2026-04-27 06:26 | 24.34909 | 73.67848 | 35862 ft | 422 kts | 219° |
| 2026-04-27 06:26 | 24.30213 | 73.63959 | 35898 ft | 424 kts | 219° |
| 2026-04-27 06:27 | 24.27859 | 73.62006 | 36138 ft | 425 kts | 219° |
| 2026-04-27 06:27 | 24.25507 | 73.60055 | 36482 ft | 424 kts | 219° |
| 2026-04-27 06:27 | 24.23184 | 73.58131 | 36769 ft | 423 kts | 220° |
| 2026-04-27 06:27 | 24.20827 | 73.56180 | 37007 ft | 424 kts | 219° |
| 2026-04-27 06:28 | 24.18465 | 73.54224 | 37207 ft | 425 kts | 220° |
| 2026-04-27 06:28 | 24.16122 | 73.52285 | 37399 ft | 426 kts | 220° |
| 2026-04-27 06:28 | 24.13754 | 73.50327 | 37594 ft | 427 kts | 220° |
| 2026-04-27 06:28 | 24.11371 | 73.48357 | 37784 ft | 427 kts | 220° |
| 2026-04-27 06:29 | 23.13855 | 72.68539 | 37793 ft | 427 kts | 221° |
| 2026-04-27 06:29 | 23.09527 | 72.64276 | 37692 ft | 419 kts | 229° |
| 2026-04-27 06:30 | 23.07643 | 72.61939 | 37306 ft | 415 kts | 233° |
| 2026-04-27 06:30 | 23.05916 | 72.59430 | 36678 ft | 414 kts | 237° |
| 2026-04-27 06:30 | 23.04387 | 72.56807 | 36051 ft | 413 kts | 241° |
| 2026-04-27 06:30 | 23.03036 | 72.54050 | 35362 ft | 414 kts | 245° |
| 2026-04-27 06:31 | 23.01807 | 72.51238 | 34604 ft | 418 kts | 245° |
| 2026-04-27 06:31 | 23.00575 | 72.48380 | 33787 ft | 423 kts | 245° |
| 2026-04-27 06:31 | 22.99317 | 72.45454 | 32889 ft | 429 kts | 245° |
| 2026-04-27 06:31 | 22.98062 | 72.42548 | 31964 ft | 435 kts | 245° |
| 2026-04-27 06:32 | 22.96763 | 72.39544 | 31076 ft | 438 kts | 246° |
| 2026-04-27 06:32 | 22.95493 | 72.36610 | 30479 ft | 435 kts | 246° |
| 2026-04-27 06:32 | 22.94220 | 72.33668 | 29927 ft | 431 kts | 245° |
| 2026-04-27 06:32 | 22.92943 | 72.30723 | 29323 ft | 428 kts | 245° |
| 2026-04-27 06:33 | 22.91682 | 72.27813 | 28724 ft | 425 kts | 245° |
| 2026-04-27 06:33 | 22.90436 | 72.24943 | 28144 ft | 422 kts | 245° |
| 2026-04-27 06:33 | 22.89186 | 72.22064 | 27571 ft | 419 kts | 245° |
| 2026-04-27 06:33 | 22.87950 | 72.19218 | 27002 ft | 415 kts | 245° |
| 2026-04-27 06:34 | 22.86731 | 72.16415 | 26619 ft | 411 kts | 245° |
| 2026-04-27 06:34 | 22.85521 | 72.13634 | 26356 ft | 411 kts | 245° |
| 2026-04-27 06:34 | 22.84297 | 72.10822 | 26059 ft | 410 kts | 245° |
| 2026-04-27 06:34 | 22.83081 | 72.08029 | 25719 ft | 408 kts | 245° |
| 2026-04-27 06:35 | 22.81872 | 72.05257 | 25295 ft | 405 kts | 246° |
| 2026-04-27 06:35 | 22.80684 | 72.02533 | 24832 ft | 402 kts | 246° |
| 2026-04-27 06:35 | 22.79501 | 71.99818 | 24345 ft | 399 kts | 245° |
| 2026-04-27 06:35 | 22.78320 | 71.97115 | 23835 ft | 395 kts | 245° |
| 2026-04-27 06:36 | 22.77145 | 71.94420 | 23319 ft | 392 kts | 245° |
| 2026-04-27 06:36 | 22.75987 | 71.91773 | 22820 ft | 388 kts | 245° |
| 2026-04-27 06:36 | 22.74839 | 71.89148 | 22323 ft | 385 kts | 246° |
| 2026-04-27 06:36 | 22.73710 | 71.86568 | 21842 ft | 381 kts | 246° |
| 2026-04-27 06:37 | 22.72583 | 71.83993 | 21362 ft | 378 kts | 245° |
| 2026-04-27 06:37 | 22.71460 | 71.81428 | 20882 ft | 375 kts | 246° |
| 2026-04-27 06:37 | 22.70350 | 71.78896 | 20400 ft | 373 kts | 246° |
| 2026-04-27 06:37 | 22.69242 | 71.76369 | 19914 ft | 370 kts | 246° |
| 2026-04-27 06:38 | 22.68145 | 71.73865 | 19425 ft | 368 kts | 246° |
| 2026-04-27 06:38 | 22.67041 | 71.71345 | 18941 ft | 366 kts | 245° |
| 2026-04-27 06:38 | 22.65959 | 71.68879 | 18469 ft | 364 kts | 245° |
| 2026-04-27 06:38 | 22.64884 | 71.66431 | 17999 ft | 362 kts | 245° |
| 2026-04-27 06:39 | 22.63791 | 71.63944 | 17519 ft | 360 kts | 245° |
| 2026-04-27 06:39 | 22.62734 | 71.61543 | 17056 ft | 358 kts | 245° |
| 2026-04-27 06:39 | 22.61667 | 71.59117 | 16592 ft | 356 kts | 245° |
| 2026-04-27 06:39 | 22.60602 | 71.56699 | 16123 ft | 355 kts | 245° |
| 2026-04-27 06:40 | 22.59545 | 71.54299 | 15805 ft | 348 kts | 245° |
| 2026-04-27 06:40 | 22.58516 | 71.51965 | 15775 ft | 350 kts | 245° |
| 2026-04-27 06:40 | 22.57455 | 71.49557 | 15773 ft | 351 kts | 245° |
| 2026-04-27 06:40 | 22.56417 | 71.47204 | 15770 ft | 351 kts | 245° |
| 2026-04-27 06:41 | 22.55367 | 71.44825 | 15773 ft | 351 kts | 245° |
| 2026-04-27 06:41 | 22.54303 | 71.42414 | 15776 ft | 351 kts | 245° |
| 2026-04-27 06:41 | 22.53255 | 71.40041 | 15778 ft | 351 kts | 245° |
| 2026-04-27 06:41 | 22.52202 | 71.37657 | 15781 ft | 351 kts | 245° |
| 2026-04-27 06:42 | 22.51158 | 71.35294 | 15786 ft | 350 kts | 245° |
| 2026-04-27 06:42 | 22.50101 | 71.32907 | 15789 ft | 350 kts | 245° |
| 2026-04-27 06:42 | 22.49039 | 71.30507 | 15788 ft | 351 kts | 244° |
| 2026-04-27 06:42 | 22.47985 | 71.28120 | 15801 ft | 352 kts | 244° |
| 2026-04-27 06:43 | 22.46928 | 71.25732 | 15797 ft | 348 kts | 244° |
| 2026-04-27 06:43 | 22.45904 | 71.23426 | 15786 ft | 331 kts | 244° |
| 2026-04-27 06:43 | 22.44926 | 71.21223 | 15805 ft | 323 kts | 244° |
| 2026-04-27 06:43 | 22.43956 | 71.19039 | 15809 ft | 322 kts | 244° |
| 2026-04-27 06:44 | 22.42979 | 71.16836 | 15811 ft | 323 kts | 244° |
| 2026-04-27 06:44 | 22.42012 | 71.14657 | 15814 ft | 323 kts | 244° |
| 2026-04-27 06:44 | 22.41033 | 71.12451 | 15812 ft | 322 kts | 244° |
| 2026-04-27 06:44 | 22.40072 | 71.10287 | 15813 ft | 320 kts | 245° |
| 2026-04-27 06:45 | 22.39123 | 71.08151 | 15466 ft | 313 kts | 244° |
| 2026-04-27 06:45 | 22.38184 | 71.06052 | 14795 ft | 313 kts | 242° |
| 2026-04-27 06:45 | 22.36862 | 71.04187 | 14121 ft | 310 kts | 220° |
| 2026-04-27 06:45 | 22.35116 | 71.02877 | 13565 ft | 305 kts | 212° |
| 2026-04-27 06:46 | 22.33320 | 71.01722 | 12984 ft | 300 kts | 211° |
| 2026-04-27 06:46 | 22.31536 | 71.00613 | 12380 ft | 296 kts | 211° |
| 2026-04-27 06:46 | 22.29754 | 70.99518 | 11772 ft | 292 kts | 211° |
| 2026-04-27 06:46 | 22.27988 | 70.98442 | 11159 ft | 288 kts | 211° |
| 2026-04-27 06:47 | 22.26258 | 70.97396 | 10550 ft | 284 kts | 211° |
| 2026-04-27 06:47 | 22.24568 | 70.96384 | 10177 ft | 270 kts | 211° |
| 2026-04-27 06:47 | 22.22975 | 70.95438 | 9907 ft | 256 kts | 211° |
| 2026-04-27 06:47 | 22.21449 | 70.94541 | 9657 ft | 242 kts | 211° |
| 2026-04-27 06:48 | 22.19985 | 70.93687 | 9305 ft | 236 kts | 211° |
| 2026-04-27 06:48 | 22.18552 | 70.92856 | 8866 ft | 233 kts | 211° |
| 2026-04-27 06:48 | 22.17125 | 70.92032 | 8411 ft | 231 kts | 211° |
| 2026-04-27 06:48 | 22.15730 | 70.91225 | 7951 ft | 230 kts | 213° |
| 2026-04-27 06:49 | 22.14588 | 70.90061 | 7444 ft | 226 kts | 242° |
| 2026-04-27 06:49 | 22.14230 | 70.88443 | 6981 ft | 226 kts | 271° |
| 2026-04-27 06:49 | 22.14447 | 70.86785 | 6563 ft | 225 kts | 279° |
| 2026-04-27 06:49 | 22.14950 | 70.85207 | 6104 ft | 228 kts | 301° |
| 2026-04-27 06:50 | 22.16085 | 70.83981 | 5689 ft | 229 kts | 317° |
| 2026-04-27 06:50 | 22.17341 | 70.82961 | 5289 ft | 228 kts | 320° |
| 2026-04-27 06:50 | 22.18632 | 70.81969 | 4880 ft | 227 kts | 324° |
| 2026-04-27 06:50 | 22.20123 | 70.81425 | 4441 ft | 233 kts | 355° |
| 2026-04-27 06:51 | 22.21709 | 70.81838 | 4044 ft | 239 kts | 28° |
| 2026-04-27 06:51 | 22.22931 | 70.83025 | 3830 ft | 237 kts | 48° |
| 2026-04-27 06:51 | 22.23893 | 70.84463 | 3623 ft | 234 kts | 54° |
| 2026-04-27 06:51 | 22.24783 | 70.85938 | 3370 ft | 232 kts | 53° |
| 2026-04-27 06:52 | 22.25697 | 70.87345 | 3120 ft | 231 kts | 51° |
| 2026-04-27 06:52 | 22.26638 | 70.88772 | 2866 ft | 229 kts | 51° |
| 2026-04-27 06:52 | 22.27537 | 70.90142 | 2592 ft | 223 kts | 52° |
| 2026-04-27 06:52 | 22.28418 | 70.91499 | 2299 ft | 214 kts | 52° |
| 2026-04-27 06:53 | 22.29255 | 70.92794 | 2219 ft | 209 kts | 52° |
| 2026-04-27 06:53 | 22.30043 | 70.94020 | 2247 ft | 188 kts | 52° |
| 2026-04-27 06:53 | 22.30748 | 70.95122 | 2187 ft | 166 kts | 51° |
| 2026-04-27 06:53 | 22.31386 | 70.96114 | 2184 ft | 158 kts | 49° |
| 2026-04-27 06:54 | 22.32085 | 70.97026 | 1995 ft | 157 kts | 44° |
| 2026-04-27 06:54 | 22.32819 | 70.97901 | 1730 ft | 153 kts | 43° |
| 2026-04-27 06:54 | 22.33521 | 70.98730 | 1495 ft | 147 kts | 43° |
| 2026-04-27 06:54 | 22.34207 | 70.99540 | 1303 ft | 145 kts | 43° |
| 2026-04-27 06:55 | 22.34888 | 71.00348 | 1111 ft | 144 kts | 43° |
| 2026-04-27 06:55 | 22.35556 | 71.01144 | 922 ft | 144 kts | 43° |
| 2026-04-27 06:55 | 22.36230 | 71.01932 | 793 ft | 143 kts | 42° |
| 2026-04-27 06:55 | 22.36887 | 71.02745 | 701 ft | 143 kts | 45° |
| 2026-04-27 06:56 | 22.37533 | 71.03539 | 639 ft | 128 kts | 42° |
| 2026-04-27 06:56 | 22.38032 | 71.04109 | 639 ft | 81 kts | 48° |
| 2026-04-27 06:56 | 22.38290 | 71.04429 | 639 ft | 31 kts | 46° |
| 2026-04-27 06:56 | 22.38338 | 71.04481 | 639 ft | 0 kts | 44° |
| 2026-04-27 06:57 | 22.38358 | 71.04502 | 639 ft | 6 kts | 44° |
| 2026-04-27 06:57 | 22.38389 | 71.04537 | 639 ft | 4 kts | 98° |
| 2026-04-27 06:57 | 22.38359 | 71.04527 | 639 ft | 7 kts | 225° |
| 2026-04-27 06:57 | 22.38285 | 71.04427 | 639 ft | 19 kts | 234° |
| 2026-04-27 06:58 | 22.38200 | 71.04318 | 639 ft | 19 kts | 229° |
| 2026-04-27 06:58 | 22.38018 | 71.04095 | 639 ft | 20 kts | 229° |
| 2026-04-27 06:58 | 22.37923 | 71.03982 | 639 ft | 20 kts | 228° |
| 2026-04-27 06:59 | 22.37828 | 71.03867 | 639 ft | 20 kts | 223° |
| 2026-04-27 06:59 | 22.37772 | 71.03742 | 639 ft | 19 kts | 290° |
| 2026-04-27 06:59 | 22.37859 | 71.03636 | 639 ft | 20 kts | 317° |
| 2026-04-27 06:59 | 22.37982 | 71.03522 | 639 ft | 23 kts | 317° |
| 2026-04-27 07:00 | 22.38066 | 71.03429 | 639 ft | 9 kts | 274° |
| 2026-04-27 07:00 | 22.38076 | 71.03383 | 638 ft | 4 kts | 306° |
| 2026-04-27 07:00 | 22.38094 | 71.03363 | 638 ft | 0 kts | 317° |